Holly Hill, Florida
Current Conditions -  °F | °C
As of 1:53 PM on Monday 20 Oct 2014 (Local Time) from KDAB Reporting Station
Scattered Clouds Scattered Clouds  
Wind Chill: 80°   Ceiling: Unl
Heat Index: 82°   Visibility: 10mi
Dew Point: 66°   Wind: 8mph
Humidity: 62%   Direction: 110°ESE
Pressure: 30.01"   Gusts: NA
Location:  29.25°N, 81.04°W
Report Text: KDAB 201753Z 11007KT 10SM FEW033 SCT045 SCT065 27/19 A3001 RMK AO2 SLP163 T02670189 10278 20228 58023
Loading
Personal Weather Stations






























Interactive Weather Map
Tropical Storm Tracking
New forecast layout! Learn more

10-Day Weather Forecast

Advertisements
Track Severe Weather on mobile